Time;durP1;ratioP1;P1;durP2;ratioP2;P2;SDS_P1;SDS_P2;PMS_P1;PMS_P2;Temp;Humidity;BMP_temperature;BMP_pressure;BME280_temperature;BME280_humidity;BME280_pressure;Samples;Min_cycle;Max_cycle;Signal;HPM_P1;HPM_P2
2022/12/14 00:01:22;;;;;;;15.80;7.28;;;-5.60;99.90;;;;;;4996262;28;20040;-83
2022/12/14 00:03:49;;;;;;;;;;;-5.50;99.90;;;;;;4972555;28;20072;-83
2022/12/14 00:06:18;;;;;;;13.50;7.00;;;-5.40;99.90;;;;;;5011049;28;20386;-85
2022/12/14 00:08:45;;;;;;;13.60;7.47;;;-5.30;99.90;;;;;;4997155;28;20040;-85
2022/12/14 00:11:15;;;;;;;18.33;7.60;;;-5.30;99.90;;;;;;5012657;28;20099;-85
2022/12/14 00:13:42;;;;;;;16.15;7.80;;;-5.20;99.90;;;;;;4981671;28;20164;-85
2022/12/14 00:16:11;;;;;;;15.48;7.22;;;-5.20;99.90;;;;;;5001771;28;20088;-84
2022/12/14 00:18:38;;;;;;;13.90;7.35;;;-5.20;99.90;;;;;;5013583;28;20030;-84
2022/12/14 00:21:10;;;;;;;14.10;7.40;;;-5.20;99.90;;;;;;4986082;28;20540;-85
2022/12/14 00:23:37;;;;;;;10.68;6.13;;;-5.20;99.90;;;;;;5015402;28;20041;-84
2022/12/14 00:26:23;;;;;;;17.63;7.35;;;-5.10;99.90;;;;;;5032233;28;20045;-84
2022/12/14 00:28:51;;;;;;;15.50;6.75;;;-5.10;99.90;;;;;;5015145;28;20033;-85
2022/12/14 00:31:18;;;;;;;14.95;6.75;;;-5.10;99.90;;;;;;5025733;28;20060;-84
2022/12/14 00:33:44;;;;;;;15.40;7.15;;;-5.10;99.90;;;;;;4979453;28;20038;-85
2022/12/14 00:36:11;;;;;;;14.27;7.28;;;-5.00;99.90;;;;;;5011852;28;20106;-85
2022/12/14 00:38:38;;;;;;;13.50;7.15;;;-5.00;99.90;;;;;;4995503;28;20026;-83
2022/12/14 00:41:04;;;;;;;14.48;6.70;;;-5.00;99.90;;;;;;5019238;28;20414;-85
2022/12/14 00:43:30;;;;;;;13.90;6.97;;;-5.00;99.90;;;;;;5015154;28;20033;-85
2022/12/14 00:45:56;;;;;;;14.32;6.25;;;-5.00;99.90;;;;;;5007234;28;20079;-85
2022/12/14 00:48:23;;;;;;;12.15;6.97;;;-5.00;99.90;;;;;;5031574;28;20030;-84
2022/12/14 00:50:50;;;;;;;15.07;7.15;;;-5.00;99.90;;;;;;5014770;28;20036;-85
2022/12/14 00:53:16;;;;;;;13.80;7.00;;;-5.00;99.90;;;;;;5014100;28;20033;-84
2022/12/14 00:55:44;;;;;;;15.00;7.25;;;-5.00;99.90;;;;;;4998302;28;20409;-84
2022/12/14 00:58:11;;;;;;;14.40;7.20;;;-4.90;99.90;;;;;;5010308;28;20029;-84
2022/12/14 01:00:40;;;;;;;14.75;7.45;;;-4.90;99.90;;;;;;5011639;28;20125;-84
2022/12/14 01:03:06;;;;;;;14.23;7.55;;;-4.90;99.90;;;;;;4978567;28;20061;-83
2022/12/14 01:05:35;;;;;;;15.13;7.43;;;-4.90;99.90;;;;;;5011296;28;20034;-83
2022/12/14 01:08:02;;;;;;;15.82;6.75;;;-4.90;99.90;;;;;;4978086;28;20040;-84
2022/12/14 01:10:27;;;;;;;15.23;6.95;;;-4.90;99.90;;;;;;4996894;28;20496;-83
2022/12/14 01:12:53;;;;;;;16.65;6.38;;;-4.90;99.90;;;;;;5015369;28;20397;-83
2022/12/14 01:15:19;;;;;;;13.88;6.18;;;-4.90;99.90;;;;;;5014973;28;20037;-85
2022/12/14 01:17:45;;;;;;;15.88;6.70;;;-4.80;99.90;;;;;;4998565;28;20038;-85
2022/12/14 01:20:11;;;;;;;13.27;6.95;;;-4.80;99.90;;;;;;5014789;28;20052;-84
2022/12/14 01:22:37;;;;;;;20.02;7.93;;;-4.80;99.90;;;;;;5031196;28;20478;-84
2022/12/14 01:25:04;;;;;;;17.52;7.03;;;-4.80;99.90;;;;;;5014138;28;20036;-84
2022/12/14 01:27:30;;;;;;;15.00;7.13;;;-4.80;99.90;;;;;;5008164;28;20042;-83
2022/12/14 01:29:55;;;;;;;17.05;8.10;;;-4.80;99.90;;;;;;5011272;28;20099;-84
2022/12/14 01:32:21;;;;;;;14.30;7.57;;;-4.80;99.90;;;;;;5009248;28;20389;-84
2022/12/14 01:34:48;;;;;;;14.10;7.70;;;-4.80;99.90;;;;;;4994407;28;20137;-83
2022/12/14 01:37:14;;;;;;;15.25;7.88;;;-4.80;99.90;;;;;;4998189;28;20398;-84
2022/12/14 01:39:40;;;;;;;15.38;7.15;;;-4.80;99.90;;;;;;5013737;28;20025;-85
2022/12/14 01:42:14;;;;;;;18.70;7.80;;;-4.80;99.90;;;;;;4994029;28;20029;-84
2022/12/14 01:44:43;;;;;;;16.48;7.93;;;-4.80;99.90;;;;;;5001239;28;20120;-84
2022/12/14 01:47:30;;;;;;;15.90;7.63;;;-4.80;99.90;;;;;;4977554;28;20069;-83
2022/12/14 01:50:04;;;;;;;16.00;8.10;;;-4.70;99.90;;;;;;4977438;28;20030;-84
2022/12/14 01:52:53;;;;;;;16.52;8.02;;;-4.70;99.90;;;;;;4996425;28;20041;-84
2022/12/14 01:55:23;;;;;;;19.42;8.57;;;-4.70;99.90;;;;;;5013663;28;20041;-84
2022/12/14 01:58:07;;;;;;;16.17;7.88;;;-4.70;99.90;;;;;;4996490;28;20041;-83
2022/12/14 02:00:33;;;;;;;16.30;7.88;;;-4.70;99.90;;;;;;5032046;28;20498;-84
2022/12/14 02:03:10;;;;;;;14.70;8.05;;;-4.70;99.90;;;;;;4988461;28;20030;-84
2022/12/14 02:05:41;;;;;;;14.68;7.20;;;-4.70;99.90;;;;;;4980187;28;20086;-83
2022/12/14 02:08:08;;;;;;;14.00;7.97;;;-4.70;99.90;;;;;;5011354;28;20036;-84
2022/12/14 02:10:34;;;;;;;16.25;8.32;;;-4.70;99.90;;;;;;4996777;28;20030;-84
2022/12/14 02:13:29;;;;;;;17.17;7.50;;;-4.70;99.90;;;;;;4980512;28;20513;-84
2022/12/14 02:15:55;;;;;;;15.90;8.02;;;-4.70;99.90;;;;;;5012798;28;20136;-84
2022/12/14 02:18:24;;;;;;;16.65;8.13;;;-4.70;99.90;;;;;;5012914;28;20712;-84
2022/12/14 02:21:11;;;;;;;16.92;8.13;;;-4.60;99.90;;;;;;5013244;28;20040;-83
2022/12/14 02:24:08;;;;;;;14.95;7.43;;;-4.60;99.90;;;;;;5012868;28;20048;-83
2022/12/14 02:26:54;;;;;;;15.30;8.25;;;-4.60;99.90;;;;;;4993174;28;20048;-82
2022/12/14 02:29:29;;;;;;;13.73;7.22;;;-4.60;99.90;;;;;;5009212;28;20044;-84
2022/12/14 02:32:34;;;;;;;14.75;7.28;;;-4.70;99.90;;;;;;5023726;28;20064;-84
2022/12/14 02:35:07;;;;;;;17.80;7.50;;;-4.70;99.90;;;;;;5028895;28;20033;-83
2022/12/14 02:37:48;;;;;;;14.73;7.68;;;-4.60;99.90;;;;;;5012324;28;20478;-83
2022/12/14 02:40:17;;;;;;;15.85;7.82;;;-4.60;99.90;;;;;;5012461;28;20021;-84
2022/12/14 02:42:53;;;;;;;15.05;8.05;;;-4.60;99.90;;;;;;5012448;28;20033;-83
2022/12/14 02:45:35;;;;;;;16.95;8.45;;;-4.50;99.90;;;;;;5012563;28;20091;-83
2022/12/14 02:48:23;;;;;;;18.25;8.70;;;-4.50;99.90;;;;;;4993488;28;20042;-83
2022/12/14 02:51:02;;;;;;;17.17;7.85;;;-4.50;99.90;;;;;;5024517;28;20124;-83
2022/12/14 02:53:44;;;;;;;15.65;7.35;;;-4.50;99.90;;;;;;4995496;28;20473;-84
2022/12/14 02:56:17;;;;;;;15.77;7.72;;;-4.50;99.90;;;;;;4999813;28;20399;-83
2022/12/14 02:58:49;;;;;;;18.40;8.32;;;-4.50;99.90;;;;;;5011061;28;20034;-83
2022/12/14 03:01:20;;;;;;;18.98;8.18;;;-4.50;99.90;;;;;;4995586;28;20124;-83
2022/12/14 03:03:47;;;;;;;16.98;8.40;;;-4.50;99.90;;;;;;5010549;28;20513;-83
2022/12/14 03:06:26;;;;;;;16.05;8.20;;;-4.50;99.90;;;;;;4992101;28;20064;-83
2022/12/14 03:09:03;;;;;;;15.32;7.55;;;-4.50;99.90;;;;;;5007992;28;20052;-84
2022/12/14 03:11:57;;;;;;;18.38;8.55;;;-4.60;99.90;;;;;;5008144;28;20038;-84
2022/12/14 03:14:33;;;;;;;14.50;7.35;;;-4.60;99.90;;;;;;4974321;28;20057;-85
2022/12/14 03:17:22;;;;;;;19.77;7.93;;;-4.60;99.90;;;;;;5003001;28;20525;-83
2022/12/14 03:19:56;;;;;;;15.05;7.20;;;-4.60;99.90;;;;;;5010998;28;20151;-83
2022/12/14 03:22:38;;;;;;;17.52;7.53;;;-4.60;99.90;;;;;;4993948;28;20061;-84
2022/12/14 03:25:09;;;;;;;16.88;7.55;;;-4.60;99.90;;;;;;5011703;28;20048;-84
2022/12/14 03:27:39;;;;;;;17.05;8.68;;;-4.50;99.90;;;;;;5027463;28;20034;-84
2022/12/14 03:30:10;;;;;;;17.10;7.93;;;-4.60;99.90;;;;;;4999233;28;20117;-84
2022/12/14 03:33:03;;;;;;;15.77;7.72;;;-4.50;99.90;;;;;;5008977;28;20128;-83
2022/12/14 03:35:38;;;;;;;15.25;7.28;;;-4.50;99.90;;;;;;4995485;28;20575;-83
2022/12/14 03:38:16;;;;;;;15.80;7.50;;;-4.50;99.90;;;;;;5011865;28;20022;-84
2022/12/14 03:41:24;;;;;;;15.00;8.05;;;-4.50;99.90;;;;;;5011669;28;20033;-82
2022/12/14 03:44:08;;;;;;;16.40;7.63;;;-4.50;99.90;;;;;;5015656;28;20037;-84
2022/12/14 03:46:52;;;;;;;17.13;8.15;;;-4.50;99.90;;;;;;5010597;28;20034;-84
2022/12/14 03:49:48;;;;;;;12.45;7.22;;;-4.40;99.90;;;;;;5010525;28;20532;-83
2022/12/14 03:52:25;;;;;;;18.88;7.45;;;-4.40;99.90;;;;;;5026479;28;20030;-84
2022/12/14 03:55:09;;;;;;;16.45;7.93;;;-4.40;99.90;;;;;;4984959;28;20034;-83
2022/12/14 03:58:04;;;;;;;16.45;7.90;;;-4.40;99.90;;;;;;4997847;28;20029;-83
2022/12/14 04:00:58;;;;;;;15.43;7.68;;;-4.40;99.90;;;;;;5010656;28;20518;-84
2022/12/14 04:03:40;;;;;;;18.15;7.63;;;-4.40;99.90;;;;;;4991559;28;20444;-83
2022/12/14 04:06:17;;;;;;;16.65;7.45;;;-4.40;99.90;;;;;;4999092;28;20041;-83
2022/12/14 04:08:57;;;;;;;13.82;7.15;;;-4.40;99.90;;;;;;5011131;28;20033;-85
2022/12/14 04:20:08;;;;;;;16.90;7.97;;;-4.30;99.90;;;;;;4998228;28;20146;-83
2022/12/14 04:22:42;;;;;;;14.15;7.40;;;-4.30;99.90;;;;;;5027428;28;20022;-83
2022/12/14 04:31:12;;;;;;;14.63;7.43;;;-4.30;99.90;;;;;;5014503;28;20053;-84
2022/12/14 04:33:46;;;;;;;14.60;7.22;;;-4.30;99.90;;;;;;5014723;28;20024;-84
2022/12/14 04:36:29;;;;;;;15.07;7.93;;;-4.30;99.90;;;;;;4983135;28;20057;-82
2022/12/14 04:39:05;;;;;;;14.15;7.05;;;-4.30;99.90;;;;;;4995208;28;20090;-83
2022/12/14 04:41:37;;;;;;;14.15;7.20;;;-4.30;99.90;;;;;;4997471;28;20112;-84
2022/12/14 04:44:11;;;;;;;14.65;7.43;;;-4.30;99.90;;;;;;5030948;28;20354;-82
2022/12/14 04:46:39;;;;;;;12.15;6.40;;;-4.30;99.90;;;;;;4998927;28;20033;-83
2022/12/14 04:49:12;;;;;;;14.35;7.07;;;-4.30;99.90;;;;;;5011481;28;20057;-84
2022/12/14 04:52:22;;;;;;;15.43;7.80;;;-4.30;99.90;;;;;;5023862;28;20530;-84
2022/12/14 04:54:54;;;;;;;11.98;7.03;;;-4.30;99.90;;;;;;4994490;28;20502;-84
2022/12/14 04:57:50;;;;;;;14.80;7.18;;;-4.30;99.90;;;;;;5012606;28;20092;-83
2022/12/14 05:00:16;;;;;;;13.00;7.32;;;-4.30;99.90;;;;;;5009920;28;20025;-84
2022/12/14 05:03:01;;;;;;;14.85;7.35;;;-4.30;99.90;;;;;;4998065;28;20061;-83
2022/12/14 05:05:48;;;;;;;15.37;7.70;;;-4.30;99.90;;;;;;5011635;28;20402;-84
2022/12/14 05:08:22;;;;;;;15.35;7.28;;;-4.30;99.90;;;;;;4998270;28;20052;-83
2022/12/14 05:11:10;;;;;;;16.48;7.45;;;-4.30;99.90;;;;;;5016833;28;20452;-83
2022/12/14 05:13:48;;;;;;;14.02;6.93;;;-4.30;99.90;;;;;;5014319;28;20595;-83
2022/12/14 05:16:19;;;;;;;13.68;6.90;;;-4.30;99.90;;;;;;5006120;28;20577;-83
2022/12/14 05:18:45;;;;;;;12.82;7.18;;;-4.30;99.90;;;;;;5002976;28;20486;-85
2022/12/14 05:21:45;;;;;;;13.98;7.63;;;-4.30;99.90;;;;;;4999513;28;20052;-84
2022/12/14 05:24:02;;;;;;;14.07;6.65;;;-4.30;99.90;;;;;;5013862;28;20426;-83
2022/12/14 05:26:29;;;;;;;14.75;6.80;;;-4.30;99.90;;;;;;4998457;28;20062;-83
2022/12/14 05:28:55;;;;;;;12.48;6.55;;;-4.30;99.90;;;;;;4979311;28;20033;-83
2022/12/14 05:31:22;;;;;;;13.80;6.88;;;-4.30;99.90;;;;;;4983523;28;20038;-82
2022/12/14 05:33:48;;;;;;;16.25;7.35;;;-4.30;99.90;;;;;;4986484;28;20422;-82
2022/12/14 05:36:14;;;;;;;15.82;7.38;;;-4.30;99.90;;;;;;4987349;28;20033;-82
2022/12/14 05:38:40;;;;;;;13.75;6.72;;;-4.20;99.90;;;;;;4998988;28;20034;-83
2022/12/14 05:41:06;;;;;;;18.27;8.00;;;-4.20;99.90;;;;;;4995808;28;20125;-84
2022/12/14 05:43:31;;;;;;;15.57;7.10;;;-4.20;99.90;;;;;;4994840;28;20229;-84
2022/12/14 05:45:59;;;;;;;13.85;7.13;;;-4.20;99.90;;;;;;4998236;28;20041;-84
2022/12/14 05:48:25;;;;;;;15.10;7.53;;;-4.20;99.90;;;;;;4982424;28;20636;-84
2022/12/14 05:50:50;;;;;;;14.98;7.65;;;-4.20;99.90;;;;;;5001714;28;20038;-84
2022/12/14 05:53:17;;;;;;;18.23;8.52;;;-4.20;99.90;;;;;;4994556;28;20037;-83
2022/12/14 05:55:50;;;;;;;18.33;8.05;;;-4.20;99.90;;;;;;5002725;28;20490;-84
2022/12/14 05:58:17;;;;;;;14.88;7.97;;;-4.20;99.90;;;;;;5015222;28;20033;-83
2022/12/14 06:00:42;;;;;;;16.98;8.10;;;-4.10;99.90;;;;;;5015022;28;20032;-84
2022/12/14 06:03:08;;;;;;;16.65;8.25;;;-4.10;99.90;;;;;;5012185;28;20666;-84
2022/12/14 06:05:34;;;;;;;17.10;8.35;;;-4.10;99.90;;;;;;4997839;28;20505;-84
2022/12/14 06:08:00;;;;;;;15.48;7.45;;;-4.10;99.90;;;;;;4993915;28;20037;-83
2022/12/14 06:10:26;;;;;;;17.08;8.20;;;-4.10;99.90;;;;;;4980052;28;20030;-84
2022/12/14 06:12:52;;;;;;;16.83;9.02;;;-4.10;99.90;;;;;;5013309;28;20037;-83
2022/12/14 06:15:17;;;;;;;15.70;8.20;;;-4.10;99.90;;;;;;5005834;28;20026;-83
2022/12/14 06:17:44;;;;;;;17.75;8.43;;;-4.00;99.90;;;;;;4999624;28;20761;-84
2022/12/14 06:20:12;;;;;;;17.65;8.18;;;-4.00;99.90;;;;;;4993020;28;20720;-83
2022/12/14 06:22:37;;;;;;;17.17;8.07;;;-4.00;99.90;;;;;;5011571;28;20030;-84
2022/12/14 06:25:04;;;;;;;17.58;8.35;;;-4.00;99.90;;;;;;4993569;28;20046;-84
2022/12/14 06:27:29;;;;;;;16.75;8.57;;;-4.00;99.90;;;;;;5013419;28;20078;-84
2022/12/14 06:29:55;;;;;;;15.70;8.82;;;-4.00;99.90;;;;;;4996459;28;20506;-84
2022/12/14 06:32:21;;;;;;;17.27;8.98;;;-4.10;99.90;;;;;;4967758;28;20038;-84
2022/12/14 06:34:47;;;;;;;18.48;8.45;;;-4.00;99.90;;;;;;4997146;28;20029;-84
2022/12/14 06:37:13;;;;;;;15.35;7.72;;;-4.00;99.90;;;;;;4993478;28;20034;-84
2022/12/14 06:39:39;;;;;;;16.55;8.57;;;-4.00;99.90;;;;;;4993928;28;20034;-84
2022/12/14 06:42:05;;;;;;;20.33;8.57;;;-4.00;99.90;;;;;;5005547;28;20022;-84
2022/12/14 06:44:31;;;;;;;16.88;8.23;;;-4.00;99.90;;;;;;4999122;28;20454;-83
2022/12/14 06:46:57;;;;;;;17.27;8.32;;;-4.00;99.90;;;;;;5013271;28;20044;-83
2022/12/14 06:49:23;;;;;;;15.77;8.52;;;-4.00;99.90;;;;;;4995281;28;20040;-84
2022/12/14 06:51:49;;;;;;;16.95;8.23;;;-4.00;99.90;;;;;;5007064;28;20034;-83
2022/12/14 06:54:16;;;;;;;20.77;9.25;;;-4.00;99.90;;;;;;5012103;28;20029;-84
2022/12/14 06:56:44;;;;;;;17.85;8.55;;;-4.00;99.90;;;;;;4999916;28;20094;-84
2022/12/14 06:59:11;;;;;;;18.50;8.63;;;-4.00;99.90;;;;;;4983013;28;20411;-83
2022/12/14 07:01:38;;;;;;;17.55;8.30;;;-3.90;99.90;;;;;;4988328;28;20037;-83
2022/12/14 07:04:05;;;;;;;20.63;9.73;;;-3.90;99.90;;;;;;4974353;28;20402;-83
2022/12/14 07:06:37;;;;;;;21.40;9.30;;;-3.90;99.90;;;;;;5009744;28;20097;-83
2022/12/14 07:09:04;;;;;;;20.58;9.25;;;-3.90;99.90;;;;;;4993526;28;20498;-84
2022/12/14 07:11:30;;;;;;;18.58;8.80;;;-3.90;99.90;;;;;;5002853;28;20706;-83
2022/12/14 07:13:59;;;;;;;18.63;8.82;;;-3.90;99.90;;;;;;4993415;28;20621;-84
2022/12/14 07:16:27;;;;;;;18.65;9.18;;;-3.90;99.90;;;;;;5020330;28;20076;-82
2022/12/14 07:18:54;;;;;;;14.77;7.95;;;-4.00;99.90;;;;;;4980444;28;20118;-84
2022/12/14 07:21:20;;;;;;;17.85;7.68;;;-4.00;99.90;;;;;;5012019;28;20041;-83
2022/12/14 07:23:48;;;;;;;19.60;7.40;;;-4.00;99.90;;;;;;5001208;28;20435;-84
2022/12/14 07:26:16;;;;;;;18.77;8.70;;;-4.00;99.90;;;;;;5013190;28;20482;-84
2022/12/14 07:28:43;;;;;;;16.80;8.40;;;-4.00;99.90;;;;;;4996020;28;20037;-85
2022/12/14 07:31:21;;;;;;;18.35;8.55;;;-4.00;99.90;;;;;;4993431;28;20037;-83
2022/12/14 07:33:48;;;;;;;20.35;9.15;;;-4.00;99.90;;;;;;4995527;28;20041;-84
2022/12/14 07:36:16;;;;;;;18.35;9.70;;;-4.00;99.90;;;;;;5009826;28;20036;-83
2022/12/14 07:38:44;;;;;;;18.30;8.63;;;-4.00;99.90;;;;;;4990602;28;20041;-84
2022/12/14 07:41:16;;;;;;;18.42;8.82;;;-4.00;99.90;;;;;;4990563;28;20546;-84
2022/12/14 07:43:43;;;;;;;21.20;9.43;;;-4.00;99.90;;;;;;5026669;28;20457;-84
2022/12/14 07:46:14;;;;;;;20.80;10.20;;;-4.00;99.90;;;;;;4984468;28;20065;-84
2022/12/14 07:48:45;;;;;;;19.05;9.70;;;-4.00;99.90;;;;;;5007857;28;20032;-85
2022/12/14 07:51:12;;;;;;;25.38;10.43;;;-4.00;99.90;;;;;;5006646;28;20524;-84
2022/12/14 07:53:39;;;;;;;19.70;9.82;;;-3.90;99.90;;;;;;4980502;28;20038;-84
2022/12/14 07:56:11;;;;;;;17.70;9.05;;;-3.90;99.90;;;;;;4992199;28;20029;-84
2022/12/14 07:58:37;;;;;;;24.40;10.63;;;-3.90;99.90;;;;;;4990148;28;20403;-84
2022/12/14 08:01:13;;;;;;;19.38;9.00;;;-3.90;99.90;;;;;;4986912;28;20033;-84
2022/12/14 08:03:41;;;;;;;21.55;8.95;;;-3.90;99.90;;;;;;4999292;28;20479;-83
2022/12/14 08:06:09;;;;;;;20.25;9.65;;;-3.90;99.90;;;;;;5002465;28;20042;-83
2022/12/14 08:08:35;;;;;;;25.17;10.23;;;-3.90;99.90;;;;;;4997660;28;20048;-83
2022/12/14 08:11:02;;;;;;;27.45;10.68;;;-3.90;99.90;;;;;;4992186;28;20128;-84
2022/12/14 08:13:28;;;;;;;22.13;9.48;;;-3.90;99.90;;;;;;4991033;28;20052;-84
2022/12/14 08:15:54;;;;;;;20.92;9.00;;;-3.90;99.90;;;;;;4995632;28;20080;-85
2022/12/14 08:18:19;;;;;;;24.55;9.90;;;-3.90;99.90;;;;;;5015695;28;20486;-84
2022/12/14 08:20:50;;;;;;;26.80;11.02;;;-3.80;99.90;;;;;;4998586;28;20033;-84
2022/12/14 08:23:17;;;;;;;23.77;9.48;;;-3.90;99.90;;;;;;5012914;28;20454;-84
2022/12/14 08:25:43;;;;;;;24.27;11.52;;;-3.90;99.90;;;;;;4980162;28;20030;-84
2022/12/14 08:28:09;;;;;;;26.23;11.10;;;-3.90;99.90;;;;;;5011392;28;20037;-84
2022/12/14 08:30:39;;;;;;;25.35;11.00;;;-3.90;99.90;;;;;;4999345;28;20075;-83
2022/12/14 08:33:06;;;;;;;25.20;10.30;;;-3.90;99.90;;;;;;4985929;28;20072;-84
2022/12/14 08:35:32;;;;;;;20.33;10.23;;;-3.90;99.90;;;;;;5014833;28;20112;-83
2022/12/14 08:37:58;;;;;;;25.05;11.20;;;-3.80;99.90;;;;;;5013342;28;20026;-84
2022/12/14 08:40:25;;;;;;;24.73;10.90;;;-3.80;99.90;;;;;;4998340;28;20036;-84
2022/12/14 08:42:51;;;;;;;26.38;11.35;;;-3.80;99.90;;;;;;4998620;28;20268;-83
2022/12/14 08:45:17;;;;;;;24.42;11.77;;;-3.80;99.90;;;;;;4985965;28;20029;-84
2022/12/14 08:47:45;;;;;;;26.85;11.63;;;-3.90;99.90;;;;;;5031313;28;20029;-85
2022/12/14 08:50:11;;;;;;;20.85;9.18;;;-3.80;99.90;;;;;;5004764;28;20067;-84
2022/12/14 08:52:37;;;;;;;22.08;10.65;;;-3.80;99.90;;;;;;4979281;28;20144;-85
2022/12/14 08:55:07;;;;;;;26.25;11.00;;;-3.80;99.90;;;;;;5003498;28;20573;-84
2022/12/14 08:57:33;;;;;;;25.48;12.18;;;-3.80;99.90;;;;;;4995187;28;20088;-85
2022/12/14 08:59:58;;;;;;;24.90;11.50;;;-3.80;99.90;;;;;;4988103;28;20033;-84
2022/12/14 09:02:24;;;;;;;23.85;11.55;;;-3.80;99.90;;;;;;4996471;28;20453;-83
2022/12/14 09:04:50;;;;;;;26.27;11.05;;;-3.80;99.90;;;;;;5014401;28;20394;-84
2022/12/14 09:07:16;;;;;;;21.73;11.02;;;-3.80;99.90;;;;;;4993025;28;20041;-83
2022/12/14 09:09:42;;;;;;;19.75;10.52;;;-3.70;99.90;;;;;;4981159;28;20037;-83
2022/12/14 09:12:08;;;;;;;24.30;11.55;;;-3.60;99.90;;;;;;4985990;28;20468;-83
2022/12/14 09:14:34;;;;;;;25.00;11.68;;;-3.50;99.90;;;;;;4977340;28;20030;-83
2022/12/14 09:17:00;;;;;;;25.27;11.95;;;-3.50;99.90;;;;;;4984558;28;20034;-82
2022/12/14 09:19:26;;;;;;;30.25;12.75;;;-3.40;99.90;;;;;;5006308;28;20034;-83
2022/12/14 09:21:52;;;;;;;32.00;13.50;;;-3.40;99.90;;;;;;4974891;28;20038;-83
2022/12/14 09:24:19;;;;;;;25.58;11.45;;;-3.30;99.90;;;;;;4970149;28;20030;-83
2022/12/14 09:26:45;;;;;;;28.35;11.23;;;-3.30;99.90;;;;;;4981103;28;20120;-84
2022/12/14 09:29:16;;;;;;;24.33;11.30;;;-3.20;99.90;;;;;;4986315;28;20498;-84
2022/12/14 09:31:42;;;;;;;26.50;12.18;;;-3.20;99.90;;;;;;5003365;28;20038;-84
2022/12/14 09:34:08;;;;;;;23.48;11.85;;;-3.20;99.90;;;;;;5007847;28;20071;-83
2022/12/14 09:36:34;;;;;;;27.55;12.60;;;-3.30;99.90;;;;;;4999674;28;20045;-85
2022/12/14 09:39:00;;;;;;;26.63;11.75;;;-3.20;99.90;;;;;;4987039;28;20030;-84
2022/12/14 09:41:34;;;;;;;26.40;12.10;;;-3.30;99.90;;;;;;5012528;28;20500;-83
2022/12/14 09:44:34;;;;;;;24.20;10.90;;;-3.30;99.90;;;;;;4990848;28;20128;-83
2022/12/14 09:47:19;;;;;;;27.38;11.88;;;-3.20;99.90;;;;;;5002000;28;20407;-84
2022/12/14 09:50:05;;;;;;;28.70;11.35;;;-3.20;99.90;;;;;;5007779;28;20057;-84
2022/12/14 09:52:46;;;;;;;25.02;11.75;;;-3.20;99.90;;;;;;4981255;28;20188;-85
2022/12/14 09:55:46;;;;;;;29.45;13.80;;;-3.20;99.90;;;;;;4993799;28;20742;-84
2022/12/14 09:58:29;;;;;;;26.40;12.13;;;-3.30;99.90;;;;;;4995248;28;20041;-83
2022/12/14 10:01:02;;;;;;;26.42;11.88;;;-3.30;99.90;;;;;;5003615;28;20041;-83
2022/12/14 10:03:45;;;;;;;26.83;11.57;;;-3.20;99.90;;;;;;5009803;28;20030;-84
2022/12/14 10:06:29;;;;;;;27.48;12.93;;;-3.20;99.90;;;;;;4989965;28;20038;-83
2022/12/14 10:09:24;;;;;;;29.85;12.80;;;-3.20;99.90;;;;;;5011380;28;20025;-83
2022/12/14 10:12:07;;;;;;;25.55;12.30;;;-3.20;99.90;;;;;;5019482;28;20413;-84
2022/12/14 10:15:14;;;;;;;25.45;12.70;;;-3.20;99.90;;;;;;5000153;28;20102;-83
2022/12/14 10:18:13;;;;;;;25.77;11.75;;;-3.10;99.90;;;;;;4980437;28;20087;-83
2022/12/14 10:20:50;;;;;;;28.92;13.15;;;-3.10;99.90;;;;;;5003204;28;20030;-83
2022/12/14 10:23:23;;;;;;;30.63;14.57;;;-3.10;99.90;;;;;;4986994;28;20041;-84
2022/12/14 10:25:54;;;;;;;25.35;12.27;;;-3.10;99.90;;;;;;4997532;28;20045;-83
2022/12/14 10:28:35;;;;;;;33.53;14.40;;;-3.00;99.90;;;;;;4968344;28;20034;-83
2022/12/14 10:31:05;;;;;;;31.35;13.75;;;-3.00;99.90;;;;;;5001184;28;20029;-83
2022/12/14 10:33:31;;;;;;;29.67;13.23;;;-3.00;99.90;;;;;;5026694;28;20033;-83
2022/12/14 10:36:18;;;;;;;26.70;12.85;;;-2.90;99.90;;;;;;4995632;28;20048;-84
2022/12/14 10:38:55;;;;;;;25.42;12.48;;;-2.90;99.90;;;;;;5005611;28;20029;-83
2022/12/14 10:42:00;;;;;;;25.90;12.27;;;-2.90;99.90;;;;;;5008653;28;20482;-82
2022/12/14 10:44:33;;;;;;;23.48;12.32;;;-2.90;99.90;;;;;;4992127;28;20401;-83
2022/12/14 10:47:03;;;;;;;33.60;14.55;;;-2.80;99.90;;;;;;5021094;28;20039;-84
2022/12/14 10:49:51;;;;;;;31.20;15.25;;;-2.70;99.90;;;;;;5015020;28;20435;-84
2022/12/14 10:52:19;;;;;;;28.58;13.02;;;-2.70;99.90;;;;;;5009342;28;20091;-83
2022/12/14 10:54:49;;;;;;;30.60;13.43;;;-2.70;99.90;;;;;;4988997;28;20711;-83
2022/12/14 10:57:18;;;;;;;26.25;12.48;;;-2.70;99.90;;;;;;4995883;28;20037;-84
2022/12/14 10:59:45;;;;;;;27.33;12.80;;;-2.70;99.90;;;;;;4997248;28;20033;-83
2022/12/14 11:02:16;;;;;;;27.35;13.73;;;-2.70;99.90;;;;;;5005897;28;20029;-84
2022/12/14 11:04:57;;;;;;;24.52;11.95;;;-2.70;99.90;;;;;;4998558;28;20513;-83
2022/12/14 11:07:25;;;;;;;24.92;12.27;;;-2.80;99.90;;;;;;5018309;28;20059;-83
2022/12/14 11:09:51;;;;;;;32.70;14.20;;;-2.90;99.90;;;;;;4975833;28;20049;-84
2022/12/14 11:12:22;;;;;;;27.92;12.75;;;-2.90;99.90;;;;;;4999442;28;20145;-83
2022/12/14 11:15:00;;;;;;;32.92;15.30;;;-2.80;99.90;;;;;;4959577;28;20087;-84
2022/12/14 11:17:43;;;;;;;29.17;13.60;;;-2.80;99.90;;;;;;4992371;28;20133;-82
2022/12/14 11:20:14;;;;;;;26.45;13.48;;;-2.80;99.90;;;;;;5008126;28;20033;-84
2022/12/14 11:22:49;;;;;;;29.60;13.25;;;-2.80;99.90;;;;;;5007927;28;20022;-83
2022/12/14 11:25:40;;;;;;;33.17;13.48;;;-2.80;99.90;;;;;;4991030;28;20033;-83
2022/12/14 11:28:28;;;;;;;38.67;14.65;;;-2.70;99.90;;;;;;4991849;28;20034;-84
2022/12/14 11:31:09;;;;;;;27.17;12.88;;;-2.60;99.90;;;;;;5003710;28;20037;-83
2022/12/14 11:33:45;;;;;;;27.27;12.20;;;-2.50;99.90;;;;;;5007724;28;20517;-83
2022/12/14 11:36:22;;;;;;;26.58;12.52;;;-2.50;99.90;;;;;;5003890;28;20026;-83
2022/12/14 11:39:04;;;;;;;26.02;12.30;;;-2.50;99.90;;;;;;4988207;28;20467;-83
2022/12/14 11:41:36;;;;;;;25.25;13.15;;;-2.50;99.90;;;;;;4991970;28;20060;-83
2022/12/14 11:44:27;;;;;;;29.25;13.20;;;-2.40;99.90;;;;;;4975681;28;20044;-83
2022/12/14 11:46:57;;;;;;;45.92;20.52;;;-2.40;99.90;;;;;;5002547;28;20041;-83
2022/12/14 11:50:02;;;;;;;30.05;12.88;;;-2.50;99.90;;;;;;5021101;28;20506;-83
2022/12/14 11:52:37;;;;;;;26.75;12.63;;;-2.50;99.90;;;;;;5005203;28;20310;-84
2022/12/14 11:55:10;;;;;;;27.13;12.80;;;-2.50;99.90;;;;;;4985468;28;20025;-83
2022/12/14 11:57:53;;;;;;;29.95;13.05;;;-2.50;99.90;;;;;;5008320;28;20069;-82
2022/12/14 12:00:19;;;;;;;25.63;12.63;;;-2.50;99.90;;;;;;4991855;28;20124;-83
2022/12/14 12:03:07;;;;;;;23.90;12.10;;;-2.50;99.90;;;;;;5008347;28;20053;-82
2022/12/14 12:05:40;;;;;;;28.48;13.07;;;-2.60;99.90;;;;;;4999169;28;20091;-83
2022/12/14 12:08:23;;;;;;;25.45;12.15;;;-2.60;99.90;;;;;;5022453;28;20470;-83
2022/12/14 12:10:52;;;;;;;27.63;14.00;;;-2.60;99.90;;;;;;5008237;28;20409;-84
2022/12/14 12:13:46;;;;;;;27.75;12.18;;;-2.60;99.90;;;;;;4975903;28;20026;-82
2022/12/14 12:16:19;;;;;;;28.85;12.73;;;-2.60;99.90;;;;;;5010713;28;20084;-82
2022/12/14 12:18:53;;;;;;;27.70;12.90;;;-2.60;99.90;;;;;;4994176;28;20037;-83
2022/12/14 12:21:29;;;;;;;25.95;13.52;;;-2.60;99.90;;;;;;5008625;28;20029;-83
2022/12/14 12:24:01;;;;;;;27.80;12.48;;;-2.60;99.90;;;;;;5008109;28;20079;-84
2022/12/14 12:26:35;;;;;;;32.75;13.88;;;-2.60;99.90;;;;;;4991630;28;20022;-83
2022/12/14 12:29:18;;;;;;;27.98;13.88;;;-2.60;99.90;;;;;;4991442;28;20044;-83
2022/12/14 12:32:04;;;;;;;27.77;12.60;;;-2.70;99.90;;;;;;4982010;28;20132;-82
2022/12/14 12:34:42;;;;;;;32.03;15.00;;;-2.70;99.90;;;;;;5019329;28;20035;-84
2022/12/14 12:37:14;;;;;;;31.15;14.23;;;-2.70;99.90;;;;;;4990649;28;20553;-83
2022/12/14 12:39:44;;;;;;;32.70;14.98;;;-2.70;99.90;;;;;;5029040;28;20108;-83
2022/12/14 12:42:31;;;;;;;28.17;13.18;;;-2.80;99.90;;;;;;5020888;28;20092;-84
2022/12/14 12:45:08;;;;;;;30.10;14.32;;;-2.70;99.90;;;;;;4994644;28;20152;-83
2022/12/14 12:47:40;;;;;;;27.90;13.70;;;-2.80;99.90;;;;;;4995118;28;20040;-83
2022/12/14 12:50:18;;;;;;;28.77;13.20;;;-2.70;99.90;;;;;;5011382;28;20044;-83
2022/12/14 12:53:04;;;;;;;31.52;14.75;;;-2.70;99.90;;;;;;4978962;28;20505;-84
2022/12/14 12:55:51;;;;;;;33.47;14.55;;;-2.70;99.90;;;;;;5014029;28;20045;-84
2022/12/14 12:58:22;;;;;;;28.85;12.73;;;-2.70;99.90;;;;;;4994778;28;20044;-84
2022/12/14 13:00:54;;;;;;;27.10;13.25;;;-2.80;99.90;;;;;;4996826;28;20055;-83
2022/12/14 13:03:26;;;;;;;29.50;13.10;;;-2.80;99.90;;;;;;4994268;28;20060;-83
2022/12/14 13:05:54;;;;;;;28.63;13.23;;;-2.80;99.90;;;;;;5014385;28;20029;-84
2022/12/14 13:08:24;;;;;;;30.50;14.25;;;-2.90;99.90;;;;;;4974693;28;20065;-84
2022/12/14 13:10:52;;;;;;;29.85;14.15;;;-2.90;99.90;;;;;;4978284;28;20057;-84
2022/12/14 13:13:22;;;;;;;33.75;15.70;;;-2.90;99.90;;;;;;5001874;28;20537;-84
2022/12/14 13:15:53;;;;;;;55.13;24.75;;;-2.90;99.90;;;;;;4994831;28;20079;-84
2022/12/14 13:18:25;;;;;;;29.33;14.85;;;-2.90;99.90;;;;;;4994367;28;20037;-84